Time;durP1;ratioP1;P1;durP2;ratioP2;P2;SDS_P1;SDS_P2;PMS_P1;PMS_P2;Temp;Humidity;BMP_temperature;BMP_pressure;BME280_temperature;BME280_humidity;BME280_pressure;Samples;Min_cycle;Max_cycle;Signal;HPM_P1;HPM_P2
2023/03/26 00:01:55;;;;;;;0.60;0.20;;;10.50;72.30;;;;;;4970686;28;20034;-73
2023/03/26 00:04:24;;;;;;;0.57;0.17;;;10.00;73.10;;;;;;4972453;28;20350;-73
2023/03/26 00:06:50;;;;;;;2.47;0.60;;;9.90;73.50;;;;;;4990896;28;20031;-72
2023/03/26 00:09:17;;;;;;;0.43;0.20;;;9.90;73.40;;;;;;4988567;28;20068;-73
2023/03/26 00:11:45;;;;;;;1.08;0.38;;;10.20;72.20;;;;;;4992564;28;20072;-72
2023/03/26 00:14:12;;;;;;;1.25;0.30;;;10.40;71.80;;;;;;4980830;28;20060;-72
2023/03/26 00:16:40;;;;;;;0.47;0.20;;;10.40;71.80;;;;;;4979104;28;20435;-72
2023/03/26 00:19:07;;;;;;;1.95;0.38;;;10.30;72.00;;;;;;4990093;28;20096;-72
2023/03/26 00:21:33;;;;;;;1.00;0.30;;;9.90;73.40;;;;;;4993901;28;20026;-72
2023/03/26 00:24:05;;;;;;;0.98;0.40;;;10.50;71.60;;;;;;4988872;28;20054;-72
2023/03/26 00:26:32;;;;;;;0.70;0.30;;;10.10;72.40;;;;;;4986910;28;20197;-72
2023/03/26 00:28:59;;;;;;;0.60;0.38;;;10.10;72.30;;;;;;4992042;28;20085;-72
2023/03/26 00:31:25;;;;;;;0.95;0.30;;;9.80;73.40;;;;;;4999303;28;20128;-72
2023/03/26 00:33:54;;;;;;;0.80;0.47;;;9.70;73.50;;;;;;4996609;28;20532;-72
2023/03/26 00:36:21;;;;;;;0.88;0.32;;;9.80;73.30;;;;;;4995510;28;20076;-72
2023/03/26 00:38:47;;;;;;;1.25;0.40;;;9.80;73.50;;;;;;4992717;28;20104;-72
2023/03/26 00:41:21;;;;;;;0.45;0.25;;;9.70;73.70;;;;;;4990618;28;20030;-72
2023/03/26 00:43:49;;;;;;;0.43;0.30;;;9.60;74.10;;;;;;4983106;28;20038;-72
2023/03/26 00:46:16;;;;;;;1.05;0.40;;;9.60;73.70;;;;;;4990458;28;20045;-74
2023/03/26 00:48:42;;;;;;;0.45;0.20;;;9.60;73.10;;;;;;4994772;28;20019;-72
2023/03/26 00:51:16;;;;;;;1.23;0.57;;;9.50;73.60;;;;;;4993639;28;20045;-72
2023/03/26 00:53:44;;;;;;;1.20;0.30;;;9.70;73.50;;;;;;4999648;28;20507;-72
2023/03/26 00:56:10;;;;;;;0.80;0.30;;;9.60;73.10;;;;;;4991680;28;20064;-72
2023/03/26 00:58:36;;;;;;;1.20;0.40;;;9.60;73.10;;;;;;5006838;28;20567;-72
2023/03/26 01:01:05;;;;;;;1.00;0.55;;;9.40;73.90;;;;;;5006191;28;20373;-72
2023/03/26 01:03:34;;;;;;;0.73;0.40;;;9.30;74.10;;;;;;4994128;28;20026;-72
2023/03/26 01:06:06;;;;;;;0.57;0.20;;;9.20;75.00;;;;;;4988435;28;20026;-72
2023/03/26 01:08:32;;;;;;;0.95;0.40;;;9.20;74.50;;;;;;5001524;28;20029;-72
2023/03/26 01:11:05;;;;;;;3.10;0.30;;;9.30;74.50;;;;;;4992368;28;20030;-72
2023/03/26 01:13:36;;;;;;;1.10;0.52;;;9.20;74.40;;;;;;4979113;28;20051;-72
2023/03/26 01:16:10;;;;;;;1.48;0.40;;;9.20;74.60;;;;;;4980092;28;20036;-72
2023/03/26 01:18:39;;;;;;;0.22;0.20;;;9.10;75.40;;;;;;4986655;28;20469;-72
2023/03/26 01:21:08;;;;;;;1.27;0.40;;;9.50;73.70;;;;;;4994093;28;20149;-72
2023/03/26 01:23:43;;;;;;;1.00;0.40;;;9.30;74.10;;;;;;4982696;28;20034;-73
2023/03/26 01:26:25;;;;;;;1.27;0.20;;;9.00;74.70;;;;;;4984652;28;20026;-72
2023/03/26 01:28:55;;;;;;;1.17;0.38;;;9.00;74.70;;;;;;4988488;28;20469;-73
2023/03/26 01:31:28;;;;;;;1.30;0.40;;;9.10;74.60;;;;;;5000092;28;20116;-72
2023/03/26 01:34:11;;;;;;;0.73;0.35;;;9.10;74.30;;;;;;4984019;28;20919;-73
2023/03/26 01:37:03;;;;;;;1.08;0.30;;;8.80;75.00;;;;;;4985554;28;20031;-72
2023/03/26 01:39:47;;;;;;;0.73;0.28;;;8.80;74.90;;;;;;4995448;28;20023;-73
2023/03/26 01:42:24;;;;;;;1.00;0.28;;;8.80;74.90;;;;;;4994948;28;20080;-71
2023/03/26 01:44:58;;;;;;;0.70;0.38;;;8.90;74.70;;;;;;4984719;28;20129;-72
2023/03/26 01:47:25;;;;;;;0.85;0.43;;;9.00;74.80;;;;;;4975936;28;20037;-72
2023/03/26 01:49:51;;;;;;;0.50;0.22;;;9.00;75.00;;;;;;4995048;28;20026;-73
2023/03/26 01:52:24;;;;;;;1.48;0.43;;;9.10;75.20;;;;;;4988573;28;20095;-72
2023/03/26 01:54:50;;;;;;;0.90;0.35;;;9.10;75.30;;;;;;4984927;28;20038;-72
2023/03/26 01:57:26;;;;;;;2.45;0.30;;;9.00;75.70;;;;;;4983447;28;20027;-72
2023/03/26 02:00:23;;;;;;;2.03;0.40;;;9.00;75.70;;;;;;4981688;28;20034;-73
2023/03/26 02:03:16;;;;;;;1.02;0.28;;;8.80;76.50;;;;;;4972304;28;20484;-73
2023/03/26 02:05:53;;;;;;;0.60;0.30;;;8.90;75.50;;;;;;4978340;28;20075;-73
2023/03/26 02:08:25;;;;;;;0.82;0.40;;;8.90;75.60;;;;;;4996120;28;20484;-71
2023/03/26 02:10:56;;;;;;;2.78;0.38;;;9.00;75.80;;;;;;4988962;28;20121;-73
2023/03/26 02:13:22;;;;;;;0.60;0.30;;;8.90;75.50;;;;;;4982456;28;20034;-71
2023/03/26 02:16:00;;;;;;;1.50;0.40;;;8.90;75.60;;;;;;4979594;28;20100;-72
2023/03/26 02:18:35;;;;;;;0.52;0.30;;;8.70;76.80;;;;;;4986437;28;20512;-71
2023/03/26 02:21:02;;;;;;;1.58;0.50;;;8.70;76.60;;;;;;4990491;28;20456;-73
2023/03/26 02:23:34;;;;;;;1.25;0.38;;;8.60;77.10;;;;;;4970620;28;20109;-72
2023/03/26 02:26:04;;;;;;;1.23;0.47;;;8.70;76.40;;;;;;4977981;28;20509;-71
2023/03/26 02:28:30;;;;;;;0.85;0.20;;;8.70;76.10;;;;;;4991172;28;20045;-72
2023/03/26 02:30:56;;;;;;;0.43;0.15;;;9.00;75.50;;;;;;4982907;28;20030;-72
2023/03/26 02:33:22;;;;;;;0.82;0.30;;;8.70;76.80;;;;;;4971687;28;20109;-72
2023/03/26 02:35:48;;;;;;;0.52;0.22;;;8.70;76.70;;;;;;4982911;28;20159;-72
2023/03/26 02:38:13;;;;;;;0.80;0.30;;;8.80;76.00;;;;;;4987260;28;20399;-72
2023/03/26 02:40:40;;;;;;;1.35;0.40;;;8.80;76.30;;;;;;4990429;28;20483;-72
2023/03/26 02:43:07;;;;;;;1.35;0.55;;;8.70;76.60;;;;;;4980447;28;20038;-73
2023/03/26 02:45:32;;;;;;;0.60;0.43;;;8.70;76.90;;;;;;4982384;28;20053;-72
2023/03/26 02:47:59;;;;;;;0.80;0.30;;;8.80;76.80;;;;;;4976042;28;20037;-71
2023/03/26 02:50:25;;;;;;;2.20;0.63;;;8.80;77.40;;;;;;4991327;28;20484;-72
2023/03/26 02:52:52;;;;;;;0.82;0.30;;;8.80;77.00;;;;;;4980622;28;20031;-71
2023/03/26 02:55:17;;;;;;;1.35;0.68;;;8.90;75.80;;;;;;4988747;28;20105;-71
2023/03/26 02:57:44;;;;;;;0.63;0.30;;;8.90;76.30;;;;;;4981125;28;20519;-73
2023/03/26 03:00:13;;;;;;;0.77;0.35;;;8.60;76.90;;;;;;4984343;28;20034;-73
2023/03/26 03:02:39;;;;;;;0.52;0.20;;;8.40;77.60;;;;;;4978882;28;20050;-72
2023/03/26 03:05:06;;;;;;;1.20;0.35;;;8.30;77.80;;;;;;4983794;28;20043;-72
2023/03/26 03:07:36;;;;;;;1.35;0.40;;;8.20;78.10;;;;;;4985696;28;20026;-72
2023/03/26 03:10:07;;;;;;;0.55;0.22;;;8.30;77.40;;;;;;4995379;28;20488;-72
2023/03/26 03:12:33;;;;;;;1.38;0.47;;;8.40;77.70;;;;;;4979232;28;20046;-72
2023/03/26 03:14:59;;;;;;;1.20;0.45;;;8.70;76.50;;;;;;4975266;28;20112;-69
2023/03/26 03:17:25;;;;;;;0.22;0.10;;;9.20;75.70;;;;;;4975363;28;20489;-71
2023/03/26 03:19:51;;;;;;;1.75;0.60;;;9.40;75.20;;;;;;4980078;28;20085;-70
2023/03/26 03:22:18;;;;;;;0.80;0.52;;;9.40;75.00;;;;;;4989073;28;20030;-71
2023/03/26 03:24:44;;;;;;;1.95;0.30;;;9.40;75.10;;;;;;4984954;28;20070;-70
2023/03/26 03:27:11;;;;;;;0.70;0.30;;;9.60;74.90;;;;;;4982824;28;20034;-70
2023/03/26 03:29:37;;;;;;;0.93;0.40;;;9.30;75.30;;;;;;4982763;28;20109;-71
2023/03/26 03:32:03;;;;;;;2.65;0.77;;;9.00;75.80;;;;;;4985155;28;20109;-71
2023/03/26 03:34:28;;;;;;;1.08;0.30;;;8.80;76.20;;;;;;4980808;28;20123;-72
2023/03/26 03:36:54;;;;;;;0.88;0.40;;;8.90;75.60;;;;;;4985996;28;20062;-71
2023/03/26 03:39:20;;;;;;;1.23;0.40;;;9.00;75.90;;;;;;4981100;28;20050;-69
2023/03/26 03:41:46;;;;;;;1.50;0.60;;;9.00;75.90;;;;;;4987630;28;20045;-70
2023/03/26 03:44:11;;;;;;;0.98;0.47;;;8.70;76.60;;;;;;4983135;28;20390;-70
2023/03/26 03:46:37;;;;;;;3.90;0.70;;;8.40;78.20;;;;;;4994607;28;20507;-71
2023/03/26 03:49:03;;;;;;;3.50;0.70;;;8.20;78.50;;;;;;4991006;28;20025;-70
2023/03/26 03:51:28;;;;;;;1.88;0.57;;;8.20;79.00;;;;;;4994604;28;20041;-70
2023/03/26 03:53:54;;;;;;;1.25;0.73;;;8.00;79.80;;;;;;4976889;28;20097;-71
2023/03/26 03:56:22;;;;;;;1.70;0.50;;;7.80;79.80;;;;;;4978406;28;20037;-70
2023/03/26 03:58:49;;;;;;;0.98;0.43;;;7.90;79.80;;;;;;4968863;28;20038;-71
2023/03/26 04:01:16;;;;;;;1.20;0.65;;;7.90;79.90;;;;;;4975792;28;20468;-72
2023/03/26 04:03:44;;;;;;;1.08;0.50;;;7.80;80.00;;;;;;4972581;28;20636;-71
2023/03/26 04:06:11;;;;;;;1.33;0.50;;;7.90;80.30;;;;;;4977049;28;20105;-72
2023/03/26 04:08:38;;;;;;;1.45;0.60;;;8.40;78.50;;;;;;4969388;28;20030;-71
2023/03/26 04:11:04;;;;;;;2.15;0.82;;;8.40;78.70;;;;;;4979052;28;20022;-71
2023/03/26 04:13:30;;;;;;;1.30;0.50;;;8.30;79.40;;;;;;4982213;28;20068;-71
2023/03/26 04:15:56;;;;;;;2.00;0.75;;;8.20;80.00;;;;;;4988826;28;20120;-71
2023/03/26 04:18:22;;;;;;;0.98;0.50;;;8.40;79.40;;;;;;4989913;28;20030;-72
2023/03/26 04:20:48;;;;;;;1.15;0.60;;;8.20;79.60;;;;;;4984452;28;20030;-71
2023/03/26 04:23:17;;;;;;;2.67;1.08;;;8.10;79.90;;;;;;4991309;28;20030;-72
2023/03/26 04:25:52;;;;;;;2.88;0.98;;;7.90;80.80;;;;;;4989223;28;20096;-73
2023/03/26 04:28:25;;;;;;;0.95;0.55;;;8.00;80.60;;;;;;4982050;28;20040;-71
2023/03/26 04:30:53;;;;;;;3.40;0.80;;;8.10;79.90;;;;;;4983130;28;20018;-72
2023/03/26 04:33:19;;;;;;;2.25;0.70;;;7.90;81.20;;;;;;4973514;28;20089;-72
2023/03/26 04:35:47;;;;;;;2.47;0.80;;;7.90;80.80;;;;;;4983236;28;20029;-70
2023/03/26 04:38:15;;;;;;;1.40;0.60;;;7.90;81.10;;;;;;4976819;28;20030;-70
2023/03/26 04:40:46;;;;;;;1.40;0.75;;;7.70;81.90;;;;;;4982533;28;20027;-72
2023/03/26 04:43:13;;;;;;;2.10;0.82;;;7.40;82.80;;;;;;4982688;28;20018;-73
2023/03/26 04:45:38;;;;;;;1.90;0.70;;;7.50;82.30;;;;;;4995731;28;20057;-72
2023/03/26 04:48:07;;;;;;;2.63;0.80;;;8.00;80.10;;;;;;4978451;28;20419;-73
2023/03/26 04:50:33;;;;;;;1.98;0.80;;;7.90;80.10;;;;;;4987278;28;20571;-72
2023/03/26 04:52:59;;;;;;;1.25;0.43;;;8.10;79.70;;;;;;4981077;28;20145;-73
2023/03/26 04:55:34;;;;;;;1.98;0.80;;;8.00;79.90;;;;;;4998417;28;20112;-73
2023/03/26 04:58:03;;;;;;;1.92;0.63;;;8.20;79.70;;;;;;4989526;28;20786;-73
2023/03/26 05:00:28;;;;;;;2.05;0.80;;;8.50;78.20;;;;;;4985861;28;20531;-72
2023/03/26 05:02:56;;;;;;;2.88;0.70;;;8.00;80.30;;;;;;4984403;28;20038;-74
2023/03/26 05:05:23;;;;;;;1.65;0.73;;;7.80;80.80;;;;;;4978051;28;20431;-72
2023/03/26 05:07:49;;;;;;;1.65;0.63;;;7.60;81.20;;;;;;4991855;28;20058;-72
2023/03/26 05:10:15;;;;;;;2.80;1.00;;;7.20;82.50;;;;;;4982789;28;20145;-72
2023/03/26 05:12:41;;;;;;;2.63;0.95;;;7.10;83.20;;;;;;4986321;28;20117;-72
2023/03/26 05:15:08;;;;;;;3.47;0.88;;;7.40;82.50;;;;;;4990928;28;20368;-72
2023/03/26 05:17:33;;;;;;;2.42;0.93;;;7.60;81.90;;;;;;4977704;28;20500;-72
2023/03/26 05:20:00;;;;;;;1.73;0.70;;;7.40;83.20;;;;;;4990063;28;20033;-72
2023/03/26 05:22:26;;;;;;;2.33;1.10;;;7.30;82.60;;;;;;4973538;28;20035;-74
2023/03/26 05:24:52;;;;;;;2.63;1.27;;;7.10;84.10;;;;;;4991856;28;20473;-73
2023/03/26 05:27:20;;;;;;;2.97;0.90;;;7.00;84.40;;;;;;4986105;28;20406;-73
2023/03/26 05:29:46;;;;;;;2.97;1.27;;;7.00;84.40;;;;;;4981726;28;20057;-73
2023/03/26 05:32:12;;;;;;;2.40;1.00;;;7.10;84.40;;;;;;4992608;28;20470;-74
2023/03/26 05:34:39;;;;;;;2.97;1.38;;;6.90;85.10;;;;;;4992840;28;20031;-74
2023/03/26 05:37:05;;;;;;;3.35;1.38;;;7.00;85.50;;;;;;4985057;28;20056;-73
2023/03/26 05:39:32;;;;;;;3.50;1.23;;;6.90;85.60;;;;;;5000211;28;20039;-72
2023/03/26 05:41:58;;;;;;;4.05;1.48;;;7.10;85.40;;;;;;4993151;28;20068;-72
2023/03/26 05:44:23;;;;;;;1.90;0.90;;;6.90;86.10;;;;;;4986502;28;20474;-73
2023/03/26 05:46:50;;;;;;;4.75;1.55;;;6.90;85.70;;;;;;4973924;28;20732;-72
2023/03/26 05:49:15;;;;;;;2.22;0.90;;;6.80;86.00;;;;;;4977352;28;20106;-73
2023/03/26 05:51:41;;;;;;;4.97;1.45;;;7.00;85.80;;;;;;4995096;28;20088;-74
2023/03/26 05:54:06;;;;;;;2.88;1.40;;;7.10;85.40;;;;;;4984874;28;20068;-72
2023/03/26 05:56:32;;;;;;;4.25;1.90;;;7.00;86.70;;;;;;4974096;28;20109;-73
2023/03/26 05:58:58;;;;;;;4.65;1.58;;;7.10;88.10;;;;;;4980976;28;20045;-73
2023/03/26 06:01:24;;;;;;;4.53;1.80;;;7.20;88.50;;;;;;4991605;28;20038;-73
2023/03/26 06:03:50;;;;;;;3.45;1.83;;;7.20;87.90;;;;;;4973407;28;20038;-73
2023/03/26 06:06:18;;;;;;;3.92;1.30;;;7.30;87.80;;;;;;4982263;28;20018;-73
2023/03/26 06:08:49;;;;;;;2.63;1.00;;;7.40;86.60;;;;;;4994378;28;20032;-73
2023/03/26 06:11:16;;;;;;;2.45;1.00;;;7.30;86.70;;;;;;4978926;28;20038;-72
2023/03/26 06:13:42;;;;;;;2.10;0.95;;;7.30;86.10;;;;;;4989672;28;20038;-73
2023/03/26 06:16:09;;;;;;;2.45;0.77;;;7.50;84.70;;;;;;4982126;28;20449;-73
2023/03/26 06:18:35;;;;;;;2.35;0.80;;;7.60;84.00;;;;;;4984120;28;20090;-73
2023/03/26 06:21:02;;;;;;;2.22;1.08;;;7.70;84.80;;;;;;4978047;28;20432;-72
2023/03/26 06:23:28;;;;;;;2.38;1.05;;;7.60;85.40;;;;;;4972660;28;20030;-73
2023/03/26 06:25:54;;;;;;;2.40;1.10;;;7.60;85.90;;;;;;4970539;28;20489;-71
2023/03/26 06:28:20;;;;;;;3.58;1.40;;;7.70;86.80;;;;;;4981482;28;20034;-72
2023/03/26 06:30:47;;;;;;;4.03;0.85;;;7.80;86.70;;;;;;4976463;28;20037;-73
2023/03/26 06:33:13;;;;;;;2.55;0.95;;;7.90;87.00;;;;;;4971490;28;20509;-73
2023/03/26 06:35:39;;;;;;;1.77;0.90;;;7.90;87.40;;;;;;4969490;28;20166;-73
2023/03/26 06:38:06;;;;;;;2.58;1.13;;;8.00;86.80;;;;;;4979617;28;20113;-73
2023/03/26 06:40:32;;;;;;;2.03;1.10;;;8.10;86.50;;;;;;4977976;28;20117;-71
2023/03/26 06:42:59;;;;;;;3.90;1.35;;;8.10;87.40;;;;;;4975116;28;20037;-73
2023/03/26 06:45:26;;;;;;;3.53;1.45;;;8.00;88.00;;;;;;4974245;28;20489;-71
2023/03/26 06:47:51;;;;;;;1.83;0.80;;;8.10;87.60;;;;;;4967077;28;20636;-70
2023/03/26 06:50:17;;;;;;;3.97;1.38;;;8.10;87.80;;;;;;4981331;28;20030;-71
2023/03/26 06:52:43;;;;;;;3.35;1.58;;;8.20;87.60;;;;;;4974856;28;20034;-72
2023/03/26 06:55:09;;;;;;;6.35;1.38;;;8.30;87.90;;;;;;4982963;28;20033;-71
2023/03/26 06:57:35;;;;;;;1.67;0.80;;;8.30;85.90;;;;;;4982751;28;20060;-71
2023/03/26 07:00:01;;;;;;;1.95;0.93;;;8.30;85.80;;;;;;4974792;28;20084;-71
2023/03/26 07:02:26;;;;;;;1.85;0.65;;;8.40;85.10;;;;;;4977236;28;20046;-71
2023/03/26 07:04:52;;;;;;;1.48;0.60;;;8.40;84.10;;;;;;4983127;28;20046;-71
2023/03/26 07:07:20;;;;;;;1.33;0.40;;;8.40;83.10;;;;;;4981751;28;20034;-72
2023/03/26 07:09:47;;;;;;;6.15;0.60;;;8.40;82.30;;;;;;4979755;28;20038;-72
2023/03/26 07:12:13;;;;;;;19.35;1.92;;;8.50;82.90;;;;;;4972633;28;20046;-72
2023/03/26 07:14:39;;;;;;;3.70;0.73;;;8.80;84.20;;;;;;4983117;28;20140;-73
2023/03/26 07:17:05;;;;;;;3.40;1.00;;;8.80;81.20;;;;;;4986074;28;20426;-70
2023/03/26 07:19:31;;;;;;;0.90;0.40;;;8.80;81.30;;;;;;4984375;28;20054;-71
2023/03/26 07:21:57;;;;;;;1.70;0.50;;;8.80;81.30;;;;;;4976719;28;20093;-72
2023/03/26 07:24:23;;;;;;;1.52;0.55;;;8.80;81.50;;;;;;4971983;28;20047;-71
2023/03/26 07:27:06;;;;;;;1.15;0.30;;;8.80;81.30;;;;;;4967418;28;20042;-74
2023/03/26 07:29:42;;;;;;;1.42;0.50;;;8.90;80.90;;;;;;4978228;28;20072;-71
2023/03/26 07:32:26;;;;;;;3.17;0.75;;;9.00;82.70;;;;;;4978068;28;20057;-72
2023/03/26 07:35:24;;;;;;;2.50;0.73;;;9.10;82.50;;;;;;4981033;28;20022;-70
2023/03/26 07:38:19;;;;;;;0.88;0.63;;;9.10;82.30;;;;;;4971466;28;20031;-72
2023/03/26 07:41:02;;;;;;;1.45;0.65;;;9.30;82.90;;;;;;4981743;28;20048;-71
2023/03/26 07:43:56;;;;;;;3.03;1.15;;;9.40;82.10;;;;;;4985340;28;20030;-74
2023/03/26 07:46:28;;;;;;;2.53;1.05;;;9.50;82.80;;;;;;4986546;28;20101;-71
2023/03/26 07:48:57;;;;;;;1.42;0.52;;;9.60;81.50;;;;;;4974449;28;20092;-71
2023/03/26 07:51:23;;;;;;;0.70;0.40;;;9.70;80.10;;;;;;4976928;28;20030;-72
2023/03/26 07:53:49;;;;;;;1.58;0.63;;;9.80;79.40;;;;;;4992931;28;20381;-73
2023/03/26 07:56:32;;;;;;;6.60;0.85;;;9.90;79.30;;;;;;4977240;28;20031;-72
2023/03/26 07:59:20;;;;;;;1.42;0.73;;;10.00;79.70;;;;;;4978063;28;20638;-71
2023/03/26 08:02:12;;;;;;;11.82;5.65;;;10.10;79.10;;;;;;4982381;28;20776;-71
2023/03/26 08:05:00;;;;;;;7.30;2.22;;;10.20;79.10;;;;;;4973200;28;20523;-72
2023/03/26 08:07:43;;;;;;;147.50;56.80;;;10.30;78.30;;;;;;4972497;28;20133;-71
2023/03/26 08:10:19;;;;;;;35.30;13.65;;;10.40;78.10;;;;;;4969993;28;20088;-71
2023/03/26 08:13:06;;;;;;;93.15;34.95;;;10.60;78.10;;;;;;4976292;28;20027;-73
2023/03/26 08:15:40;;;;;;;17.45;8.95;;;10.60;78.70;;;;;;4968120;28;20030;-71
2023/03/26 08:18:14;;;;;;;4.63;2.28;;;10.80;77.40;;;;;;4974136;28;20053;-72
2023/03/26 08:20:43;;;;;;;;;;;10.80;77.00;;;;;;4970307;28;20189;-71
2023/03/26 08:23:27;;;;;;;15.77;9.02;;;10.70;78.00;;;;;;4976981;28;20356;-72
2023/03/26 08:26:14;;;;;;;6.10;3.47;;;10.70;78.80;;;;;;4980704;28;20072;-71
2023/03/26 08:29:14;;;;;;;6.38;2.50;;;10.70;79.70;;;;;;4977899;28;20030;-71
2023/03/26 08:31:43;;;;;;;6.82;3.20;;;10.90;79.70;;;;;;4974116;28;20563;-71
2023/03/26 08:34:11;;;;;;;19.25;9.63;;;11.10;78.90;;;;;;4979049;28;20070;-71
2023/03/26 08:36:36;;;;;;;7.47;2.30;;;11.20;78.40;;;;;;4981843;28;20087;-71
2023/03/26 08:39:03;;;;;;;4.47;1.45;;;11.20;78.30;;;;;;4979071;28;20038;-71
2023/03/26 08:41:35;;;;;;;2.35;1.00;;;11.30;79.30;;;;;;4979401;28;21026;-71
2023/03/26 08:44:48;;;;;;;3.63;1.00;;;11.20;77.70;;;;;;4978117;28;20049;-70
2023/03/26 08:47:38;;;;;;;2.17;0.90;;;11.00;77.40;;;;;;4936588;28;20397;-72
2023/03/26 08:50:32;;;;;;;2.63;0.60;;;11.10;78.60;;;;;;4975964;28;20037;-73
2023/03/26 08:53:45;;;;;;;1.73;0.77;;;11.40;78.60;;;;;;4974523;28;20038;-70
2023/03/26 08:56:35;;;;;;;2.10;0.95;;;11.40;77.70;;;;;;4967402;28;21034;-71
2023/03/26 08:59:22;;;;;;;1.73;0.57;;;11.40;77.90;;;;;;4974885;28;20034;-72
2023/03/26 09:02:02;;;;;;;3.53;1.00;;;11.50;77.90;;;;;;4977277;28;20038;-71
2023/03/26 09:04:40;;;;;;;2.28;1.20;;;11.80;78.10;;;;;;4980811;28;20391;-71
2023/03/26 09:07:06;;;;;;;2.03;0.90;;;11.90;79.10;;;;;;4976885;28;20048;-71
2023/03/26 09:09:40;;;;;;;3.25;1.38;;;12.00;78.10;;;;;;4981242;28;20053;-71
2023/03/26 09:12:21;;;;;;;3.13;0.68;;;12.00;77.60;;;;;;4974865;28;20070;-71
2023/03/26 09:15:14;;;;;;;2.13;0.90;;;12.10;78.10;;;;;;4988895;28;20568;-71
2023/03/26 09:18:00;;;;;;;1.98;0.80;;;12.10;78.20;;;;;;4988897;28;20061;-71
2023/03/26 09:21:11;;;;;;;1.80;0.90;;;14.00;75.40;;;;;;4988977;28;20026;-71
2023/03/26 09:23:56;;;;;;;3.03;0.70;;;16.30;72.30;;;;;;4988738;28;20480;-72
2023/03/26 09:27:12;;;;;;;2.78;1.00;;;17.90;69.30;;;;;;4982942;28;20046;-75
2023/03/26 09:29:38;;;;;;;2.13;1.17;;;18.20;69.00;;;;;;4963230;28;20039;-71
2023/03/26 09:32:41;;;;;;;2.20;1.10;;;18.90;68.40;;;;;;4988181;28;20034;-69
2023/03/26 09:35:09;;;;;;;3.22;1.20;;;19.50;67.90;;;;;;4988188;28;20033;-70
2023/03/26 09:38:13;;;;;;;3.38;0.93;;;19.60;68.80;;;;;;4987563;28;20085;-70
2023/03/26 09:40:54;;;;;;;2.50;0.95;;;19.00;68.30;;;;;;4987136;28;20106;-70
2023/03/26 09:43:20;;;;;;;1.92;1.25;;;19.50;70.20;;;;;;4988124;28;20034;-72
2023/03/26 09:45:57;;;;;;;4.35;1.45;;;19.90;69.00;;;;;;4988458;28;20111;-69
2023/03/26 09:48:28;;;;;;;3.97;1.30;;;20.40;67.90;;;;;;4988317;28;20384;-70
2023/03/26 09:51:25;;;;;;;4.20;1.25;;;19.10;67.20;;;;;;4988451;28;20098;-73
2023/03/26 09:53:50;;;;;;;2.20;0.80;;;16.50;68.50;;;;;;4987708;28;20034;-69
2023/03/26 09:56:22;;;;;;;1.70;1.02;;;15.50;71.30;;;;;;4972581;28;20042;-69
2023/03/26 09:58:58;;;;;;;2.05;0.95;;;14.40;71.80;;;;;;4968422;28;20531;-70
2023/03/26 10:01:55;;;;;;;3.40;1.13;;;13.80;74.10;;;;;;4968264;28;20097;-71
2023/03/26 10:04:39;;;;;;;2.78;1.30;;;13.70;74.60;;;;;;4980830;28;20038;-70
2023/03/26 10:07:23;;;;;;;2.50;1.45;;;13.80;74.30;;;;;;4989151;28;20053;-69
2023/03/26 10:09:52;;;;;;;7.97;4.45;;;13.50;73.60;;;;;;4984382;28;20037;-69
2023/03/26 10:12:31;;;;;;;15.35;8.05;;;13.70;75.00;;;;;;4969706;28;20690;-70
2023/03/26 10:15:19;;;;;;;4.18;2.15;;;13.90;74.90;;;;;;4992215;28;20030;-69
2023/03/26 10:17:45;;;;;;;3.72;1.55;;;14.10;75.00;;;;;;4982211;28;20027;-70
2023/03/26 10:20:44;;;;;;;2.70;1.08;;;14.20;75.70;;;;;;4987429;28;20041;-71
2023/03/26 10:23:41;;;;;;;3.03;1.02;;;14.20;74.90;;;;;;4976988;28;20068;-69
2023/03/26 10:26:53;;;;;;;3.10;1.30;;;14.30;74.50;;;;;;4979769;28;20030;-70
2023/03/26 10:29:34;;;;;;;1.88;1.02;;;14.60;75.80;;;;;;4975289;28;20096;-71
2023/03/26 10:32:24;;;;;;;3.33;0.77;;;15.00;76.60;;;;;;4972948;28;20054;-71
2023/03/26 10:35:20;;;;;;;69.70;4.85;;;14.90;75.50;;;;;;4979839;28;20034;-70
2023/03/26 10:38:24;;;;;;;30.88;3.78;;;15.10;77.10;;;;;;4991648;28;20092;-70
2023/03/26 10:41:15;;;;;;;29.98;2.83;;;15.20;74.50;;;;;;4956680;28;20042;-71
2023/03/26 10:44:12;;;;;;;2.88;1.30;;;15.30;74.30;;;;;;4976053;28;20057;-71
2023/03/26 10:46:58;;;;;;;7.10;1.40;;;15.50;74.00;;;;;;4978460;28;20030;-69
2023/03/26 10:50:01;;;;;;;3.70;1.10;;;15.60;73.70;;;;;;4964108;28;20101;-70
2023/03/26 10:52:36;;;;;;;2.78;1.15;;;15.50;73.40;;;;;;4978376;28;20046;-71
2023/03/26 10:55:08;;;;;;;4.25;1.30;;;15.50;73.40;;;;;;4981496;28;20030;-71
2023/03/26 10:57:42;;;;;;;3.17;1.50;;;15.70;74.10;;;;;;4982998;28;20045;-73
2023/03/26 11:00:23;;;;;;;5.40;1.63;;;16.20;73.60;;;;;;4979049;28;20046;-69
2023/03/26 11:02:55;;;;;;;2.10;1.35;;;16.10;72.60;;;;;;4992023;28;20026;-70
2023/03/26 11:05:29;;;;;;;16.63;2.15;;;16.30;73.70;;;;;;4971720;28;20042;-71
2023/03/26 11:07:55;;;;;;;3.95;1.10;;;16.80;76.40;;;;;;4975691;28;20027;-69
2023/03/26 11:10:44;;;;;;;5.05;1.40;;;17.00;75.60;;;;;;4975518;28;20507;-69
2023/03/26 11:13:28;;;;;;;3.08;1.38;;;16.80;76.10;;;;;;4963767;28;20047;-69
2023/03/26 11:16:04;;;;;;;2.95;1.45;;;16.80;76.00;;;;;;4983710;28;20030;-69
2023/03/26 11:18:42;;;;;;;3.13;1.50;;;16.70;75.40;;;;;;4983048;28;20453;-71
2023/03/26 11:21:13;;;;;;;4.18;1.30;;;16.60;76.30;;;;;;4973233;28;20031;-70
2023/03/26 11:23:52;;;;;;;4.68;1.60;;;16.40;76.70;;;;;;4980912;28;20113;-69
2023/03/26 11:26:37;;;;;;;3.28;1.27;;;16.20;74.60;;;;;;4987988;28;20044;-69
2023/03/26 11:29:47;;;;;;;4.30;1.70;;;16.00;74.40;;;;;;4983997;28;20072;-70
2023/03/26 11:32:38;;;;;;;7.70;2.00;;;16.10;76.50;;;;;;4984671;28;20034;-71
2023/03/26 11:35:22;;;;;;;4.95;2.50;;;16.20;76.70;;;;;;4992504;28;20034;-70
2023/03/26 11:37:53;;;;;;;5.57;2.58;;;16.50;75.20;;;;;;4973160;28;20026;-72
2023/03/26 11:40:30;;;;;;;5.93;2.95;;;16.60;74.50;;;;;;4982496;28;20026;-70
2023/03/26 11:43:02;;;;;;;32.40;4.28;;;16.70;74.80;;;;;;4971345;28;20120;-70
2023/03/26 11:45:31;;;;;;;36.80;5.97;;;16.80;75.20;;;;;;4981549;28;20133;-71
2023/03/26 11:48:30;;;;;;;11.57;3.70;;;16.90;76.00;;;;;;4974424;28;20586;-69
2023/03/26 11:51:03;;;;;;;16.83;4.50;;;16.90;76.00;;;;;;4977917;28;20026;-68
2023/03/26 11:53:33;;;;;;;50.35;6.25;;;16.80;75.90;;;;;;4984907;28;20030;-68
2023/03/26 11:56:02;;;;;;;7.45;3.22;;;16.70;76.80;;;;;;4976772;28;20061;-68
2023/03/26 11:58:35;;;;;;;10.90;4.40;;;16.70;76.90;;;;;;4973312;28;20030;-70
2023/03/26 12:01:17;;;;;;;5.93;3.25;;;16.50;77.00;;;;;;4954656;28;20038;-71
2023/03/26 12:04:03;;;;;;;6.85;3.88;;;16.40;77.10;;;;;;4969921;28;20048;-73
2023/03/26 12:06:29;;;;;;;7.57;4.18;;;16.40;77.40;;;;;;4968774;28;20039;-72
2023/03/26 12:08:55;;;;;;;12.10;3.78;;;16.50;77.90;;;;;;4975403;28;20038;-71
2023/03/26 12:11:30;;;;;;;5.53;3.45;;;16.40;77.70;;;;;;4982748;28;20121;-74
2023/03/26 12:14:04;;;;;;;5.25;3.03;;;16.40;78.60;;;;;;4975959;28;20022;-70
2023/03/26 12:16:30;;;;;;;6.93;3.67;;;16.30;78.30;;;;;;4968946;28;20429;-70
2023/03/26 12:18:58;;;;;;;12.27;5.15;;;16.20;78.60;;;;;;4970947;28;20026;-71
2023/03/26 12:21:24;;;;;;;9.93;4.18;;;16.20;79.20;;;;;;4966931;28;20066;-73
2023/03/26 12:23:55;;;;;;;7.80;3.00;;;16.10;79.60;;;;;;4979996;28;20367;-71
2023/03/26 12:26:40;;;;;;;6.13;3.33;;;16.20;80.20;;;;;;4973462;28;20053;-72
2023/03/26 12:29:15;;;;;;;5.55;3.13;;;16.20;80.00;;;;;;4969138;28;20094;-73
2023/03/26 12:31:55;;;;;;;10.45;3.30;;;16.30;80.50;;;;;;4977572;28;20030;-71
2023/03/26 12:34:29;;;;;;;10.27;3.15;;;16.30;80.60;;;;;;4987281;28;20037;-70
2023/03/26 12:36:58;;;;;;;6.95;2.80;;;16.30;80.00;;;;;;4964661;28;20041;-73
2023/03/26 12:39:45;;;;;;;5.60;2.13;;;16.30;80.80;;;;;;4970123;28;20041;-73
2023/03/26 12:42:29;;;;;;;5.75;3.20;;;16.30;79.90;;;;;;4961970;28;20062;-70
2023/03/26 12:44:56;;;;;;;7.50;2.47;;;16.20;79.20;;;;;;4981735;28;20091;-70
2023/03/26 12:47:33;;;;;;;11.98;3.75;;;16.30;79.50;;;;;;4974508;28;20493;-69
2023/03/26 12:49:59;;;;;;;6.03;2.00;;;16.20;79.90;;;;;;4981390;28;20030;-71
2023/03/26 12:52:39;;;;;;;4.70;2.05;;;16.10;80.10;;;;;;4983101;28;20042;-71
2023/03/26 12:55:23;;;;;;;6.57;2.15;;;16.00;79.60;;;;;;4982019;28;20041;-71
2023/03/26 12:58:17;;;;;;;4.95;2.03;;;16.10;80.20;;;;;;4977161;28;20022;-71
2023/03/26 13:00:48;;;;;;;10.02;2.92;;;16.00;80.60;;;;;;4982980;28;20035;-71
2023/03/26 13:03:17;;;;;;;4.90;2.10;;;16.00;81.70;;;;;;4979627;28;20066;-71
2023/03/26 13:05:55;;;;;;;8.55;1.95;;;15.90;82.70;;;;;;4981380;28;20038;-71
2023/03/26 13:08:33;;;;;;;5.43;2.35;;;15.70;84.00;;;;;;4981559;28;20042;-71
2023/03/26 13:11:30;;;;;;;8.50;2.25;;;15.60;85.90;;;;;;4966718;28;20041;-71
2023/03/26 13:14:03;;;;;;;7.75;2.35;;;15.50;87.80;;;;;;4975256;28;20037;-71
2023/03/26 13:16:34;;;;;;;5.25;2.13;;;15.30;88.90;;;;;;4982164;28;20038;-71
2023/03/26 13:19:09;;;;;;;7.60;2.88;;;15.20;89.30;;;;;;4973386;28;20505;-70
2023/03/26 13:21:52;;;;;;;5.95;2.17;;;15.20;89.70;;;;;;4977899;28;20039;-71
2023/03/26 13:24:21;;;;;;;7.03;2.95;;;15.20;90.50;;;;;;4976916;28;20035;-71
2023/03/26 13:26:58;;;;;;;6.93;2.47;;;15.10;91.40;;;;;;4969831;28;20041;-74